Time;durP1;ratioP1;P1;durP2;ratioP2;P2;SDS_P1;SDS_P2;PMS_P1;PMS_P2;Temp;Humidity;BMP_temperature;BMP_pressure;BME280_temperature;BME280_humidity;BME280_pressure;Samples;Min_cycle;Max_cycle;Signal;HPM_P1;HPM_P2
2021/12/09 00:01:58;;;;;;;;;;;;;;;16.47;45.97;100083.19;4986186;28;19914;-48
2021/12/09 00:04:28;;;;;;;;;;;;;;;16.47;46.03;100091.25;4987139;28;19914;-50
2021/12/09 00:06:55;;;;;;;;;;;;;;;16.33;46.05;100067.81;4987330;28;19914;-47
2021/12/09 00:09:20;;;;;;;;;;;;;;;16.44;45.98;100087.06;4987359;28;19921;-47
2021/12/09 00:11:47;;;;;;;;;;;;;;;16.43;45.91;100082.69;4974286;28;19918;-48
2021/12/09 00:14:14;;;;;;;;;;;;;;;16.42;45.92;100086.41;4980593;28;19944;-53
2021/12/09 00:16:39;;;;;;;;;;;;;;;16.42;45.90;100088.25;4966592;28;19994;-49
2021/12/09 00:19:04;;;;;;;;;;;;;;;16.40;45.93;100085.75;4967730;28;20315;-52
2021/12/09 00:21:30;;;;;;;;;;;;;;;16.38;45.96;100082.38;4967357;28;19918;-51
2021/12/09 00:23:55;;;;;;;;;;;;;;;16.39;45.90;100080.53;4967780;28;19925;-50
2021/12/09 00:26:20;;;;;;;;;;;;;;;16.36;45.98;100081.72;4967180;29;20352;-48
2021/12/09 00:28:45;;;;;;;;;;;;;;;16.37;45.97;100083.41;4955988;29;19966;-49
2021/12/09 00:31:10;;;;;;;;;;;;;;;16.36;46.03;100083.59;4946943;29;19914;-51
2021/12/09 00:33:41;;;;;;;;;;;;;;;16.34;46.06;100081.06;4950083;28;19919;-48
2021/12/09 00:36:07;;;;;;;;;;;;;;;16.34;45.93;100090.94;4990981;28;19925;-49
2021/12/09 00:38:34;;;;;;;;;;;;;;;16.33;46.02;100089.28;4986883;28;19914;-49
2021/12/09 00:41:00;;;;;;;;;;;;;;;16.31;46.05;100100.19;4986337;28;20371;-51
2021/12/09 00:43:25;;;;;;;;;;;;;;;16.30;45.92;100087.75;4986903;28;19914;-51
2021/12/09 00:45:52;;;;;;;;;;;;;;;16.29;46.06;100096.81;4985306;28;20073;-49
2021/12/09 00:48:17;;;;;;;;;;;;;;;16.29;45.94;100099.50;4986816;28;19918;-48
2021/12/09 00:50:42;;;;;;;;;;;;;;;16.28;46.03;100087.13;4986299;28;19985;-48
2021/12/09 00:53:08;;;;;;;;;;;;;;;16.27;45.97;100087.25;4985515;28;19929;-48
2021/12/09 00:55:33;;;;;;;;;;;;;;;16.25;45.96;100095.50;4985992;28;19914;-50
2021/12/09 00:57:58;;;;;;;;;;;;;;;16.25;46.02;100093.66;4986531;28;19945;-52
2021/12/09 01:00:23;;;;;;;;;;;;;;;16.25;45.98;100090.13;4982096;28;19982;-50
2021/12/09 01:02:49;;;;;;;;;;;;;;;16.23;46.05;100089.47;4965221;29;19915;-48
2021/12/09 01:05:14;;;;;;;;;;;;;;;16.22;45.95;100101.19;4966834;28;19915;-50
2021/12/09 01:07:39;;;;;;;;;;;;;;;16.21;46.11;100100.34;4966841;28;19921;-51
2021/12/09 01:10:05;;;;;;;;;;;;;;;16.21;45.98;100102.22;4966601;28;20017;-49
2021/12/09 01:12:30;;;;;;;;;;;;;;;16.20;45.97;100103.22;4966421;28;19922;-50
2021/12/09 01:14:56;;;;;;;;;;;;;;;16.19;46.01;100102.38;4965665;28;19923;-50
2021/12/09 01:17:21;;;;;;;;;;;;;;;16.18;45.97;100099.84;4964796;28;19954;-48
2021/12/09 01:19:46;;;;;;;;;;;;;;;16.18;45.91;100115.94;4966653;28;19977;-50
2021/12/09 01:22:11;;;;;;;;;;;;;;;16.16;45.97;100108.09;4949925;28;19988;-53
2021/12/09 01:24:36;;;;;;;;;;;;;;;16.15;46.03;100110.94;4947555;29;19946;-50
2021/12/09 01:27:02;;;;;;;;;;;;;;;16.13;46.03;100105.72;4946952;29;19914;-52
2021/12/09 01:29:39;;;;;;;;;;;;;;;16.12;45.90;100104.06;4945706;29;19915;-51
2021/12/09 01:32:07;;;;;;;;;;;;;;;16.13;45.99;100107.59;4946101;29;20001;-48
2021/12/09 01:34:32;;;;;;;;;;;;;;;16.12;46.00;100113.97;4947199;29;19915;-50
2021/12/09 01:36:58;;;;;;;;;;;;;;;16.11;46.00;100115.81;4947309;28;19923;-51
2021/12/09 01:39:26;;;;;;;;;;;;;;;16.11;45.92;100120.34;4966577;28;19926;-50
2021/12/09 01:41:52;;;;;;;;;;;;;;;16.10;45.89;100116.81;4965803;29;19915;-50
2021/12/09 01:44:17;;;;;;;;;;;;;;;16.09;45.96;100125.84;4966350;29;20041;-51
2021/12/09 01:46:42;;;;;;;;;;;;;;;16.07;45.92;100114.47;4964934;28;20220;-50
2021/12/09 01:49:07;;;;;;;;;;;;;;;16.07;45.93;100114.47;4966326;29;19921;-50
2021/12/09 01:51:32;;;;;;;;;;;;;;;16.06;45.92;100111.97;4965781;29;19918;-51
2021/12/09 01:53:57;;;;;;;;;;;;;;;16.05;46.07;100124.50;4966147;29;20018;-52
2021/12/09 01:56:24;;;;;;;;;;;;;;;16.04;45.95;100113.97;4965798;29;19915;-48
2021/12/09 01:58:53;;;;;;;;;;;;;;;16.02;45.98;100116.81;4966084;28;19982;-51
2021/12/09 02:01:19;;;;;;;;;;;;;;;16.03;45.86;100123.03;4964760;28;19915;-49
2021/12/09 02:03:44;;;;;;;;;;;;;;;16.01;45.87;100117.81;4975268;28;19921;-47
2021/12/09 02:06:10;;;;;;;;;;;;;;;16.01;45.97;100120.50;4985136;28;20380;-46
2021/12/09 02:08:35;;;;;;;;;;;;;;;16.00;46.01;100121.50;4985388;28;19937;-52
2021/12/09 02:11:00;;;;;;;;;;;;;;;15.98;45.99;100124.38;4984223;28;19914;-48
2021/12/09 02:13:25;;;;;;;;;;;;;;;15.99;45.85;100126.03;4965697;29;19929;-49
2021/12/09 02:15:55;;;;;;;;;;;;;;;15.99;45.92;100119.84;4964842;28;19918;-49
2021/12/09 02:18:21;;;;;;;;;;;;;;;15.98;45.98;100123.53;4946848;29;19914;-48
2021/12/09 02:20:46;;;;;;;;;;;;;;;15.97;45.96;100120.00;4951585;29;19926;-48
2021/12/09 02:23:15;;;;;;;;;;;;;;;15.96;45.82;100115.63;4947946;28;19915;-51
2021/12/09 02:25:44;;;;;;;;;;;;;;;15.96;45.92;100118.31;4951877;29;19915;-51
2021/12/09 02:28:10;;;;;;;;;;;;;;;15.96;45.83;100122.84;4969549;28;19922;-49
2021/12/09 02:30:35;;;;;;;;;;;;;;;15.94;45.94;100109.63;4968469;28;19915;-45
2021/12/09 02:33:00;;;;;;;;;;;;;;;15.92;45.95;100116.97;4968920;28;20288;-50
2021/12/09 02:35:25;;;;;;;;;;;;;;;15.93;45.88;100123.19;4971020;28;19922;-47
2021/12/09 02:37:51;;;;;;;;;;;;;;;15.92;45.83;100116.16;4969380;29;19922;-50
2021/12/09 02:40:16;;;;;;;;;;;;;;;15.90;45.93;100105.59;4969589;28;19919;-47
2021/12/09 02:42:41;;;;;;;;;;;;;;;15.90;45.86;100116.31;4968959;28;19934;-50
2021/12/09 02:45:07;;;;;;;;;;;;;;;15.89;45.90;100109.28;4967656;29;19938;-47
2021/12/09 02:47:33;;;;;;;;;;;;;;;15.88;45.94;100104.91;4968828;28;19914;-48
2021/12/09 02:49:59;;;;;;;;;;;;;;;15.87;45.98;100108.59;4969505;29;19921;-51
2021/12/09 02:52:24;;;;;;;;;;;;;;;15.86;45.91;100112.31;4969110;28;20327;-49
2021/12/09 02:54:50;;;;;;;;;;;;;;;15.85;45.99;100107.94;4979968;28;19922;-49
2021/12/09 02:57:15;;;;;;;;;;;;;;;15.84;45.96;100110.78;4970881;28;19926;-51
2021/12/09 02:59:40;;;;;;;;;;;;;;;15.82;45.89;100112.81;4969176;29;19921;-50
2021/12/09 03:02:07;;;;;;;;;;;;;;;15.84;45.90;100116.16;4967819;28;19915;-48
2021/12/09 03:04:40;;;;;;;;;;;;;;;15.82;45.90;100116.31;4969254;28;20402;-51
2021/12/09 03:07:06;;;;;;;;;;;;;;;15.81;45.93;100120.00;4969387;28;20371;-49
2021/12/09 03:09:31;;;;;;;;;;;;;;;15.80;45.93;100123.72;4969062;28;20423;-48
2021/12/09 03:12:03;;;;;;;;;;;;;;;15.80;45.86;100125.53;4967311;28;19945;-49
2021/12/09 03:14:28;;;;;;;;;;;;;;;15.80;45.90;100126.38;4969119;28;19938;-47
2021/12/09 03:16:53;;;;;;;;;;;;;;;15.79;45.91;100130.06;4959238;28;19914;-51
2021/12/09 03:19:19;;;;;;;;;;;;;;;15.79;45.81;100129.22;4949843;29;20505;-51
2021/12/09 03:21:45;;;;;;;;;;;;;;;15.77;46.04;100128.56;4964932;29;19914;-50
2021/12/09 03:24:12;;;;;;;;;;;;;;;15.76;45.86;100122.38;4976186;28;20387;-48
2021/12/09 03:26:39;;;;;;;;;;;;;;;15.75;45.95;100124.19;4987986;28;20398;-48
2021/12/09 03:29:06;;;;;;;;;;;;;;;15.74;45.93;100129.72;4973919;28;19921;-51
2021/12/09 03:31:31;;;;;;;;;;;;;;;15.73;45.93;100123.53;4967368;28;19926;-49
2021/12/09 03:33:57;;;;;;;;;;;;;;;15.72;45.82;100121.84;4968581;29;19919;-50
2021/12/09 03:36:25;;;;;;;;;;;;;;;15.72;45.89;100129.91;4968271;28;19949;-50
2021/12/09 03:38:51;;;;;;;;;;;;;;;15.71;45.87;100125.53;4956220;28;20017;-51
2021/12/09 03:41:16;;;;;;;;;;;;;;;15.70;45.96;100123.84;4958744;29;19949;-50
2021/12/09 03:43:41;;;;;;;;;;;;;;;15.70;45.87;100126.53;4968367;28;19914;-50
2021/12/09 03:46:06;;;;;;;;;;;;;;;15.71;45.92;100132.72;4966027;29;19956;-46
2021/12/09 03:48:31;;;;;;;;;;;;;;;15.70;45.81;100133.72;4968403;28;20390;-52
2021/12/09 03:50:57;;;;;;;;;;;;;;;15.70;45.79;100133.72;4968309;28;19950;-49
2021/12/09 03:53:22;;;;;;;;;;;;;;;15.69;45.82;100130.22;4967862;29;19986;-51
2021/12/09 03:55:48;;;;;;;;;;;;;;;15.69;45.79;100134.75;4967955;29;20028;-49
2021/12/09 03:58:13;;;;;;;;;;;;;;;15.67;45.85;100132.25;4967960;28;19914;-51
2021/12/09 04:00:38;;;;;;;;;;;;;;;15.67;45.73;100129.56;4967208;29;20001;-48
2021/12/09 04:03:04;;;;;;;;;;;;;;;15.65;45.86;100126.19;4967793;28;19914;-50
2021/12/09 04:05:29;;;;;;;;;;;;;;;15.66;45.77;100116.31;4966886;29;19921;-49
2021/12/09 04:07:54;;;;;;;;;;;;;;;15.65;45.79;100114.66;4967945;29;19918;-48
2021/12/09 04:10:19;;;;;;;;;;;;;;;15.65;45.74;100111.97;4967778;29;19915;-50
2021/12/09 04:12:45;;;;;;;;;;;;;;;15.63;45.88;100117.47;4966497;29;19993;-51
2021/12/09 04:15:10;;;;;;;;;;;;;;;15.63;45.82;100128.19;4967364;29;19942;-51
2021/12/09 04:17:35;;;;;;;;;;;;;;;15.63;45.80;100135.34;4967456;28;19915;-50
2021/12/09 04:20:00;;;;;;;;;;;;;;;15.63;45.81;100132.69;4967884;29;19914;-49
2021/12/09 04:22:26;;;;;;;;;;;;;;;15.64;45.75;100132.56;4967547;28;19945;-48
2021/12/09 04:24:51;;;;;;;;;;;;;;;15.62;45.75;100131.84;4982741;28;19925;-53
2021/12/09 04:27:17;;;;;;;;;;;;;;;15.63;45.73;100132.69;4987106;28;19989;-49
2021/12/09 04:29:42;;;;;;;;;;;;;;;15.64;45.63;100139.75;4967900;28;20390;-50
2021/12/09 04:32:07;;;;;;;;;;;;;;;15.63;45.66;100141.59;4966395;28;19922;-48
2021/12/09 04:34:33;;;;;;;;;;;;;;;15.63;45.75;100136.22;4949409;28;19919;-51
2021/12/09 04:36:58;;;;;;;;;;;;;;;15.64;45.67;100137.06;4948256;29;19923;-54
2021/12/09 04:39:24;;;;;;;;;;;;;;;15.64;45.53;100131.69;4948308;29;19921;-51
2021/12/09 04:41:50;;;;;;;;;;;;;;;15.63;45.54;100138.91;4947853;29;19921;-53
2021/12/09 04:44:15;;;;;;;;;;;;;;;15.64;45.60;100134.38;4948103;29;19915;-50
2021/12/09 04:46:41;;;;;;;;;;;;;;;15.62;45.70;100129.16;4964178;29;20419;-47
2021/12/09 04:49:06;;;;;;;;;;;;;;;15.61;45.61;100135.53;4967242;28;19925;-51
2021/12/09 04:51:31;;;;;;;;;;;;;;;15.61;45.61;100134.69;4966099;28;19925;-51
2021/12/09 04:53:57;;;;;;;;;;;;;;;15.60;45.70;100136.53;4949839;29;19962;-52
2021/12/09 04:56:22;;;;;;;;;;;;;;;15.59;45.68;100137.56;4966871;29;19958;-51
2021/12/09 04:58:47;;;;;;;;;;;;;;;15.59;45.63;100142.06;4966994;28;19915;-53
2021/12/09 05:01:12;;;;;;;;;;;;;;;15.58;45.69;100141.22;4965879;28;20031;-52
2021/12/09 05:03:37;;;;;;;;;;;;;;;15.58;45.59;100146.56;4966772;29;19914;-47
2021/12/09 05:06:03;;;;;;;;;;;;;;;15.58;45.58;100143.91;4966920;28;19921;-49
2021/12/09 05:08:28;;;;;;;;;;;;;;;15.58;45.62;100143.91;4967024;28;19914;-48
2021/12/09 05:11:12;;;;;;;;;;;;;;;15.57;45.65;100146.75;5081575;28;19936;-46
2021/12/09 05:13:38;;;;;;;;;;;;;;;15.57;45.70;100144.06;5082866;28;19916;-47
2021/12/09 05:16:03;;;;;;;;;;;;;;;15.57;45.77;100144.06;5080313;28;19962;-47
2021/12/09 05:18:29;;;;;;;;;;;;;;;15.57;45.93;100158.31;5064395;28;19935;-51
2021/12/09 05:20:54;;;;;;;;;;;;;;;15.58;45.71;100151.09;5061180;28;19977;-49
2021/12/09 05:23:21;;;;;;;;;;;;;;;15.56;45.75;100153.97;5064879;28;19917;-48
2021/12/09 05:25:47;;;;;;;;;;;;;;;15.58;45.83;100159.13;5064703;28;19956;-48
2021/12/09 05:28:15;;;;;;;;;;;;;;;15.57;45.70;100155.63;5067816;28;20353;-46
2021/12/09 05:33:27;;;;;;;;;;;;;;;15.58;45.81;100165.34;5078784;28;19935;-50
2021/12/09 05:35:52;;;;;;;;;;;;;;;15.58;45.75;100165.34;5071868;28;19921;-47
2021/12/09 05:38:18;;;;;;;;;;;;;;;15.58;45.89;100169.84;5061025;28;19919;-48
2021/12/09 05:40:43;;;;;;;;;;;;;;;15.60;46.08;100173.22;5060696;28;19984;-49
2021/12/09 05:43:08;;;;;;;;;;;;;;;15.60;46.12;100160.66;5060880;28;20007;-48
2021/12/09 05:45:33;;;;;;;;;;;;;;;15.61;46.20;100169.53;5068729;28;19916;-47
2021/12/09 05:47:59;;;;;;;;;;;;;;;15.62;45.96;100173.88;5077957;28;20294;-46
2021/12/09 05:50:24;;;;;;;;;;;;;;;15.62;46.24;100164.00;5060901;28;20007;-49
2021/12/09 05:52:49;;;;;;;;;;;;;;;15.62;46.09;100168.53;5076130;28;20368;-51
2021/12/09 05:55:15;;;;;;;;;;;;;;;15.62;46.21;100182.75;5069626;28;19917;-51
2021/12/09 05:57:40;;;;;;;;;;;;;;;15.63;46.24;100186.28;5078482;28;19966;-47
2021/12/09 06:00:06;;;;;;;;;;;;;;;15.63;46.28;100184.47;5079413;28;19919;-48
2021/12/09 06:02:32;;;;;;;;;;;;;;;15.64;46.30;100187.97;5079358;28;19912;-46
2021/12/09 06:04:58;;;;;;;;;;;;;;;15.65;46.45;100192.34;5079913;28;19912;-50
2021/12/09 06:07:23;;;;;;;;;;;;;;;15.64;46.33;100196.88;5079772;28;19919;-48
2021/12/09 06:09:48;;;;;;;;;;;;;;;15.65;46.42;100193.19;5083261;28;19944;-48
2021/12/09 06:12:13;;;;;;;;;;;;;;;15.65;46.56;100198.56;5060326;28;19913;-48
2021/12/09 06:14:40;;;;;;;;;;;;;;;15.66;46.41;100197.53;5060473;28;20236;-50
2021/12/09 06:17:05;;;;;;;;;;;;;;;15.66;46.48;100204.75;5059984;28;19913;-45
2021/12/09 06:19:30;;;;;;;;;;;;;;;15.67;46.54;100207.28;5077188;28;19913;-45
2021/12/09 06:21:55;;;;;;;;;;;;;;;15.67;46.53;100203.72;5066061;28;19921;-49
2021/12/09 06:24:21;;;;;;;;;;;;;;;15.66;46.47;100202.06;5062392;28;19921;-47
2021/12/09 06:26:46;;;;;;;;;;;;;;;15.67;46.51;100203.72;5052178;28;19920;-47
2021/12/09 06:29:11;;;;;;;;;;;;;;;15.67;46.51;100196.56;5063201;28;19917;-48
2021/12/09 06:31:36;;;;;;;;;;;;;;;15.67;46.51;100198.38;5051378;28;20569;-45
2021/12/09 06:34:01;;;;;;;;;;;;;;;15.67;46.53;100207.28;5060756;28;19919;-48
2021/12/09 06:36:27;;;;;;;;;;;;;;;15.68;46.70;100200.91;5063692;28;19916;-48
2021/12/09 06:38:52;;;;;;;;;;;;;;;15.68;46.58;100200.91;5066400;28;19924;-47
2021/12/09 06:41:17;;;;;;;;;;;;;;;15.68;46.63;100203.59;5055342;28;19957;-46
2021/12/09 06:43:42;;;;;;;;;;;;;;;15.69;46.66;100201.75;5063338;28;19916;-49
2021/12/09 06:46:08;;;;;;;;;;;;;;;15.69;46.64;100204.41;5060864;28;19917;-46
2021/12/09 06:48:34;;;;;;;;;;;;;;;15.69;46.56;100205.25;5066235;28;19909;-49
2021/12/09 06:51:03;;;;;;;;;;;;;;;15.69;46.71;100207.94;5054126;28;19921;-47
2021/12/09 06:53:28;;;;;;;;;;;;;;;15.70;46.72;100211.44;5060886;28;19928;-50
2021/12/09 06:55:54;;;;;;;;;;;;;;;15.71;46.68;100215.81;5063698;28;19917;-50
2021/12/09 06:58:21;;;;;;;;;;;;;;;15.71;46.66;100208.59;5062115;28;20382;-47
2021/12/09 07:00:46;;;;;;;;;;;;;;;15.73;46.77;100203.09;5062170;28;19923;-49
2021/12/09 07:03:12;;;;;;;;;;;;;;;15.71;46.59;100211.28;5062947;28;19940;-49
2021/12/09 07:05:37;;;;;;;;;;;;;;;15.74;46.60;100220.84;5063270;28;20000;-49
2021/12/09 07:08:05;;;;;;;;;;;;;;;15.74;46.57;100215.47;5063148;28;19920;-49
2021/12/09 07:10:31;;;;;;;;;;;;;;;15.78;46.60;100218.69;5078704;28;19935;-57
2021/12/09 07:12:56;;;;;;;;;;;;;;;15.82;46.73;100207.44;5065757;28;19913;-53
2021/12/09 07:15:21;;;;;;;;;;;;;;;15.89;46.58;100221.88;5084110;28;19921;-47
2021/12/09 07:17:47;;;;;;;;;;;;;;;15.96;46.57;100214.00;5081802;28;19934;-46
2021/12/09 07:20:13;;;;;;;;;;;;;;;16.02;46.46;100210.66;5082440;28;19923;-46
2021/12/09 07:22:39;;;;;;;;;;;;;;;16.06;46.35;100201.28;5080339;28;19919;-50
2021/12/09 07:25:04;;;;;;;;;;;;;;;16.11;46.42;100200.78;5082975;28;19944;-51
2021/12/09 07:27:29;;;;;;;;;;;;;;;16.13;46.39;100204.97;5083506;28;19912;-52
2021/12/09 07:29:54;;;;;;;;;;;;;;;16.17;46.16;100208.16;5080881;28;20474;-46
2021/12/09 07:32:20;;;;;;;;;;;;;;;16.21;46.33;100214.84;5082071;28;19934;-45
2021/12/09 07:34:45;;;;;;;;;;;;;;;16.22;46.28;100214.69;5083291;28;19920;-45
2021/12/09 07:37:10;;;;;;;;;;;;;;;16.24;46.17;100218.03;5083776;28;19917;-50
2021/12/09 07:39:35;;;;;;;;;;;;;;;16.27;46.09;100218.69;5082729;28;19923;-51
2021/12/09 07:42:01;;;;;;;;;;;;;;;16.29;46.08;100217.53;5083064;28;19943;-50
2021/12/09 07:44:27;;;;;;;;;;;;;;;16.31;46.04;100214.69;5083108;28;19917;-47
2021/12/09 07:46:53;;;;;;;;;;;;;;;16.33;46.02;100212.69;5081392;28;19916;-45
2021/12/09 07:49:19;;;;;;;;;;;;;;;16.34;45.96;100217.88;5082655;28;19916;-49
2021/12/09 07:51:45;;;;;;;;;;;;;;;16.37;45.81;100222.91;5048545;28;19935;-46
2021/12/09 07:54:10;;;;;;;;;;;;;;;16.40;45.77;100221.75;5083333;28;19916;-51
2021/12/09 07:56:35;;;;;;;;;;;;;;;16.41;45.70;100215.34;5082094;28;19963;-52
2021/12/09 07:59:00;;;;;;;;;;;;;;;16.41;45.66;100218.88;5081658;28;19929;-52
2021/12/09 08:01:25;;;;;;;;;;;;;;;16.46;45.52;100221.06;5080826;28;19947;-47
2021/12/09 08:03:50;;;;;;;;;;;;;;;16.48;45.35;100213.66;5077735;28;19916;-48
2021/12/09 08:06:15;;;;;;;;;;;;;;;16.50;45.51;100219.72;5081331;28;19924;-44
2021/12/09 08:08:41;;;;;;;;;;;;;;;16.52;45.29;100215.00;5064100;28;19920;-47
2021/12/09 08:11:07;;;;;;;;;;;;;;;16.55;45.33;100216.50;5082638;28;19916;-49
2021/12/09 08:13:32;;;;;;;;;;;;;;;16.57;45.14;100223.41;5082653;28;19965;-46
2021/12/09 08:15:57;;;;;;;;;;;;;;;16.59;45.16;100221.38;5082078;28;19912;-46
2021/12/09 08:20:48;;;;;;;;;;;;;;;16.63;44.96;100230.75;5082994;28;19947;-51
2021/12/09 08:23:14;;;;;;;;;;;;;;;16.65;44.83;100227.88;5082609;28;19920;-49
2021/12/09 08:25:40;;;;;;;;;;;;;;;16.67;44.91;100225.88;5082263;28;19974;-50
2021/12/09 08:28:05;;;;;;;;;;;;;;;16.67;44.81;100234.78;5082478;28;19975;-46
2021/12/09 08:30:30;;;;;;;;;;;;;;;16.69;44.79;100226.53;5062505;28;20315;-44
2021/12/09 08:32:56;;;;;;;;;;;;;;;16.71;44.68;100232.59;5081861;28;19984;-48
2021/12/09 08:35:21;;;;;;;;;;;;;;;16.73;44.73;100231.44;5082629;28;19916;-46
2021/12/09 08:37:47;;;;;;;;;;;;;;;16.80;44.45;100238.81;5082250;28;19913;-47
2021/12/09 08:40:12;;;;;;;;;;;;;;;16.96;44.50;100241.47;5081590;28;20541;-45
2021/12/09 08:42:38;;;;;;;;;;;;;;;17.14;44.13;100236.69;5082084;28;19951;-45
2021/12/09 08:45:03;;;;;;;;;;;;;;;17.29;43.79;100239.50;5081485;28;20253;-46
2021/12/09 08:47:28;;;;;;;;;;;;;;;17.48;43.46;100227.50;5080470;28;19913;-47
2021/12/09 08:49:54;;;;;;;;;;;;;;;17.67;42.83;100234.25;5080584;28;19913;-45
2021/12/09 08:52:19;;;;;;;;;;;;;;;17.79;42.70;100232.03;5082227;28;19975;-47
2021/12/09 08:54:44;;;;;;;;;;;;;;;17.84;42.56;100230.53;5082814;28;19912;-45
2021/12/09 08:57:11;;;;;;;;;;;;;;;17.80;42.53;100237.28;5082297;28;20277;-45
2021/12/09 08:59:36;;;;;;;;;;;;;;;17.75;42.40;100247.69;5080893;28;19919;-50
2021/12/09 09:02:01;;;;;;;;;;;;;;;17.67;42.34;100234.25;5081402;28;19912;-46
2021/12/09 09:04:26;;;;;;;;;;;;;;;17.62;42.49;100244.72;5082015;28;19923;-52
2021/12/09 09:06:52;;;;;;;;;;;;;;;17.55;42.56;100247.28;5082111;28;19912;-46
2021/12/09 09:09:18;;;;;;;;;;;;;;;17.51;42.81;100243.28;5080980;28;19921;-49
2021/12/09 09:11:43;;;;;;;;;;;;;;;17.49;43.02;100245.28;5081710;28;20532;-46
2021/12/09 09:14:08;;;;;;;;;;;;;;;17.45;42.97;100247.47;5082002;28;19912;-48
2021/12/09 09:16:33;;;;;;;;;;;;;;;17.44;42.93;100259.25;5080920;28;19913;-46
2021/12/09 09:18:58;;;;;;;;;;;;;;;17.43;43.05;100259.44;5081174;28;20031;-44
2021/12/09 09:21:25;;;;;;;;;;;;;;;17.42;42.96;100271.19;5079297;28;19938;-42
2021/12/09 09:23:50;;;;;;;;;;;;;;;17.42;43.16;100272.03;5064163;28;19954;-50
2021/12/09 09:26:15;;;;;;;;;;;;;;;17.43;42.88;100272.88;5078834;28;19923;-43
2021/12/09 09:28:41;;;;;;;;;;;;;;;17.41;43.21;100273.03;5079521;28;19916;-45
2021/12/09 09:31:08;;;;;;;;;;;;;;;17.40;42.93;100274.03;5079843;28;20058;-49
2021/12/09 09:33:33;;;;;;;;;;;;;;;17.37;42.98;100268.19;5081313;28;19916;-45
2021/12/09 09:35:58;;;;;;;;;;;;;;;17.36;42.99;100272.72;5081892;28;19919;-46
2021/12/09 09:38:23;;;;;;;;;;;;;;;17.35;43.20;100273.72;5081355;28;19927;-45
2021/12/09 09:40:52;;;;;;;;;;;;;;;17.34;43.14;100274.75;5078167;28;19920;-54
2021/12/09 09:43:30;;;;;;;;;;;;;;;17.34;43.16;100273.91;5080731;28;20541;-46
2021/12/09 09:45:55;;;;;;;;;;;;;;;17.33;43.30;100270.41;5080852;28;20489;-54
2021/12/09 09:48:21;;;;;;;;;;;;;;;17.32;43.15;100267.88;5062585;28;20450;-50
2021/12/09 09:50:46;;;;;;;;;;;;;;;17.32;43.16;100263.31;5080070;28;19924;-45
2021/12/09 09:53:11;;;;;;;;;;;;;;;17.33;43.12;100266.84;5081672;28;19936;-51
2021/12/09 09:55:37;;;;;;;;;;;;;;;17.33;43.12;100265.03;5080932;28;19921;-49
2021/12/09 09:58:03;;;;;;;;;;;;;;;17.34;43.31;100265.84;5084408;28;19943;-47
2021/12/09 10:00:28;;;;;;;;;;;;;;;17.34;43.24;100265.84;5082570;28;19968;-50
2021/12/09 10:02:54;;;;;;;;;;;;;;;17.32;43.18;100263.31;5084379;28;19924;-49
2021/12/09 10:05:22;;;;;;;;;;;;;;;17.33;43.17;100265.03;5085245;28;19962;-47
2021/12/09 10:07:48;;;;;;;;;;;;;;;17.32;43.30;100266.00;5084875;28;19918;-50
2021/12/09 10:10:13;;;;;;;;;;;;;;;17.32;43.29;100259.81;5083612;28;19960;-45
2021/12/09 10:12:59;;;;;;;;;;;;;;;17.32;43.36;100259.81;5084491;28;19928;-48
2021/12/09 10:15:33;;;;;;;;;;;;;;;17.32;43.45;100260.63;5082327;28;20010;-44
2021/12/09 10:17:58;;;;;;;;;;;;;;;17.32;43.23;100252.56;5084607;28;19912;-49
2021/12/09 10:20:23;;;;;;;;;;;;;;;17.33;43.35;100261.47;5083963;28;19972;-48
2021/12/09 10:22:48;;;;;;;;;;;;;;;17.33;43.30;100254.28;5066403;28;19939;-52
2021/12/09 10:25:23;;;;;;;;;;;;;;;17.34;43.21;100255.13;5084928;28;19919;-51
2021/12/09 10:27:58;;;;;;;;;;;;;;;17.33;43.15;100254.28;5082473;28;20394;-51
2021/12/09 10:30:24;;;;;;;;;;;;;;;17.32;43.11;100249.88;5082596;28;20561;-53
2021/12/09 10:32:50;;;;;;;;;;;;;;;17.32;43.23;100249.88;5083240;28;19972;-51
2021/12/09 10:35:20;;;;;;;;;;;;;;;17.33;43.31;100246.22;5066879;28;19916;-56
2021/12/09 10:37:46;;;;;;;;;;;;;;;17.34;43.34;100250.56;5081390;28;19923;-51
2021/12/09 10:40:11;;;;;;;;;;;;;;;17.35;43.37;100246.03;5077277;28;19974;-54
2021/12/09 10:42:36;;;;;;;;;;;;;;;17.35;43.36;100249.56;5068545;28;19924;-55
2021/12/09 10:45:09;;;;;;;;;;;;;;;17.37;43.54;100249.38;5083599;28;19912;-49
2021/12/09 10:48:02;;;;;;;;;;;;;;;17.37;43.58;100247.50;5079729;28;19913;-50
2021/12/09 10:50:35;;;;;;;;;;;;;;;17.39;43.38;100260.78;5082442;28;19930;-50
2021/12/09 10:53:05;;;;;;;;;;;;;;;17.39;43.50;100255.41;5079648;28;19916;-45
2021/12/09 10:55:32;;;;;;;;;;;;;;;17.39;43.52;100250.88;5083246;28;19948;-49
2021/12/09 10:58:02;;;;;;;;;;;;;;;17.40;43.47;100249.84;5083529;28;19959;-46
2021/12/09 11:00:30;;;;;;;;;;;;;;;17.41;43.37;100245.31;5082704;28;19920;-52
2021/12/09 11:03:00;;;;;;;;;;;;;;;17.40;43.31;100233.75;5081907;28;19912;-51
2021/12/09 11:05:26;;;;;;;;;;;;;;;17.40;43.57;100236.41;5084231;28;19919;-53
2021/12/09 11:07:51;;;;;;;;;;;;;;;17.41;43.30;100234.56;5083617;28;19912;-47
2021/12/09 11:10:17;;;;;;;;;;;;;;;17.40;43.51;100233.75;5083319;28;20016;-54
2021/12/09 11:12:50;;;;;;;;;;;;;;;17.42;43.17;100233.59;5079940;28;19916;-49
2021/12/09 11:15:16;;;;;;;;;;;;;;;17.41;43.25;100230.03;5060632;28;19948;-52
2021/12/09 11:17:45;;;;;;;;;;;;;;;17.42;43.27;100228.22;5082992;28;19932;-53
2021/12/09 11:20:10;;;;;;;;;;;;;;;17.41;43.43;100224.66;5082119;28;19932;-51
2021/12/09 11:22:37;;;;;;;;;;;;;;;17.42;43.40;100226.34;5082254;28;19939;-53
2021/12/09 11:25:05;;;;;;;;;;;;;;;17.44;43.36;100234.22;5083225;28;19989;-54
2021/12/09 11:27:30;;;;;;;;;;;;;;;17.46;43.30;100230.38;5079222;28;19928;-54
2021/12/09 11:30:07;;;;;;;;;;;;;;;17.48;43.30;100230.19;5081468;28;19917;-52
2021/12/09 11:32:45;;;;;;;;;;;;;;;17.48;43.43;100222.94;5080530;28;19942;-53
2021/12/09 11:35:30;;;;;;;;;;;;;;;17.49;43.60;100218.41;5082656;28;19928;-52
2021/12/09 11:40:38;;;;;;;;;;;;;;;17.52;43.58;100231.50;5082961;28;19912;-51
2021/12/09 11:43:04;;;;;;;;;;;;;;;17.53;43.46;100225.09;5082930;28;19917;-49
2021/12/09 11:45:34;;;;;;;;;;;;;;;17.53;43.79;100221.59;5082563;28;19939;-49
2021/12/09 11:48:01;;;;;;;;;;;;;;;17.54;43.76;100223.25;5082998;28;19958;-51
2021/12/09 11:50:33;;;;;;;;;;;;;;;17.55;43.71;100222.25;5082704;28;19948;-49
2021/12/09 11:52:59;;;;;;;;;;;;;;;17.55;43.76;100220.41;5082606;28;20055;-49
2021/12/09 11:55:32;;;;;;;;;;;;;;;17.56;43.88;100223.94;5083219;28;19923;-53
2021/12/09 11:58:06;;;;;;;;;;;;;;;17.56;43.68;100219.38;5065270;28;19962;-49
2021/12/09 12:06:52;;;;;;;;;;;;;;;17.60;43.58;100212.66;5089109;28;19951;-50
2021/12/09 12:12:22;;;;;;;;;;;;;;;17.63;43.61;100216.84;5082533;28;19923;-49
2021/12/09 12:14:49;;;;;;;;;;;;;;;17.61;43.45;100211.63;5079168;28;19913;-50
2021/12/09 12:17:36;;;;;;;;;;;;;;;17.63;43.34;100208.78;5081841;28;19912;-50
2021/12/09 12:23:01;;;;;;;;;;;;;;;17.66;43.55;100201.16;5082661;28;19912;-52
2021/12/09 12:28:44;;;;;;;;;;;;;;;17.69;43.35;100205.38;5085056;28;19936;-47
2021/12/09 12:39:46;;;;;;;;;;;;;;;17.70;43.27;100199.81;5020618;28;19922;-56
2021/12/09 12:42:18;;;;;;;;;;;;;;;17.71;43.27;100214.06;5016666;28;19927;-50
2021/12/09 12:45:03;;;;;;;;;;;;;;;17.69;43.38;100208.88;5017484;28;19917;-52
2021/12/09 12:47:29;;;;;;;;;;;;;;;17.70;43.51;100215.09;5019415;28;19917;-54
2021/12/09 12:50:07;;;;;;;;;;;;;;;17.70;43.31;100204.34;5019251;28;19918;-54
2021/12/09 12:52:33;;;;;;;;;;;;;;;17.69;43.21;100203.50;5017125;28;19917;-52
2021/12/09 12:55:11;;;;;;;;;;;;;;;17.70;43.37;100204.34;5019717;28;19976;-53
2021/12/09 12:57:42;;;;;;;;;;;;;;;17.70;43.22;100193.59;5018865;28;19992;-55
2021/12/09 13:00:10;;;;;;;;;;;;;;;17.72;43.42;100196.97;5024656;28;20004;-51
2021/12/09 13:03:05;;;;;;;;;;;;;;;17.72;43.40;100196.97;5018819;28;19918;-50
2021/12/09 13:08:24;;;;;;;;;;;;;;;17.75;43.26;100193.91;5029770;28;19920;-50